sensor_id;sensor_type;location;lat;lon;timestamp;P1;durP1;ratioP1;P2;durP2;ratioP2
40489;SDS011;26196;52.302;10.572;2023-07-08T00:01:54;1.08;;;0.90;;
40489;SDS011;26196;52.302;10.572;2023-07-08T00:05:55;2.15;;;1.55;;
40489;SDS011;26196;52.302;10.572;2023-07-08T00:09:56;1.73;;;1.63;;
40489;SDS011;26196;52.302;10.572;2023-07-08T00:13:56;1.87;;;1.60;;
40489;SDS011;26196;52.302;10.572;2023-07-08T00:17:56;1.40;;;1.23;;
40489;SDS011;26196;52.302;10.572;2023-07-08T00:21:57;3.73;;;2.00;;
40489;SDS011;26196;52.302;10.572;2023-07-08T00:25:57;1.30;;;1.20;;
40489;SDS011;26196;52.302;10.572;2023-07-08T00:29:57;1.83;;;1.13;;
40489;SDS011;26196;52.302;10.572;2023-07-08T00:34:00;2.00;;;1.42;;
40489;SDS011;26196;52.302;10.572;2023-07-08T00:42:27;1.60;;;1.10;;
40489;SDS011;26196;52.302;10.572;2023-07-08T00:50:31;1.50;;;1.30;;
40489;SDS011;26196;52.302;10.572;2023-07-08T00:54:32;2.42;;;1.10;;
40489;SDS011;26196;52.302;10.572;2023-07-08T00:58:33;1.73;;;1.23;;
40489;SDS011;26196;52.302;10.572;2023-07-08T01:02:41;2.10;;;1.10;;
40489;SDS011;26196;52.302;10.572;2023-07-08T01:06:47;1.60;;;1.30;;
40489;SDS011;26196;52.302;10.572;2023-07-08T01:11:01;1.65;;;1.10;;
40489;SDS011;26196;52.302;10.572;2023-07-08T01:15:05;1.83;;;1.40;;
40489;SDS011;26196;52.302;10.572;2023-07-08T01:19:08;2.03;;;1.50;;
40489;SDS011;26196;52.302;10.572;2023-07-08T01:23:14;1.40;;;1.20;;
40489;SDS011;26196;52.302;10.572;2023-07-08T01:27:16;2.10;;;1.10;;
40489;SDS011;26196;52.302;10.572;2023-07-08T01:31:18;1.60;;;1.45;;
40489;SDS011;26196;52.302;10.572;2023-07-08T01:35:20;2.33;;;2.15;;
40489;SDS011;26196;52.302;10.572;2023-07-08T01:39:23;1.67;;;1.27;;
40489;SDS011;26196;52.302;10.572;2023-07-08T01:43:25;2.63;;;1.08;;
40489;SDS011;26196;52.302;10.572;2023-07-08T01:47:25;1.40;;;1.30;;
40489;SDS011;26196;52.302;10.572;2023-07-08T01:51:25;3.00;;;1.40;;
40489;SDS011;26196;52.302;10.572;2023-07-08T01:55:27;1.55;;;1.27;;
40489;SDS011;26196;52.302;10.572;2023-07-08T01:59:30;1.73;;;1.30;;
40489;SDS011;26196;52.302;10.572;2023-07-08T02:03:30;1.60;;;1.20;;
40489;SDS011;26196;52.302;10.572;2023-07-08T02:07:31;1.20;;;1.10;;
40489;SDS011;26196;52.302;10.572;2023-07-08T02:11:31;2.23;;;1.33;;
40489;SDS011;26196;52.302;10.572;2023-07-08T02:15:32;1.60;;;1.50;;
40489;SDS011;26196;52.302;10.572;2023-07-08T02:19:32;2.95;;;1.30;;
40489;SDS011;26196;52.302;10.572;2023-07-08T02:23:33;1.60;;;1.20;;
40489;SDS011;26196;52.302;10.572;2023-07-08T02:27:33;2.23;;;1.43;;
40489;SDS011;26196;52.302;10.572;2023-07-08T02:31:33;1.95;;;1.40;;
40489;SDS011;26196;52.302;10.572;2023-07-08T02:35:34;1.80;;;1.40;;
40489;SDS011;26196;52.302;10.572;2023-07-08T02:39:34;2.17;;;1.47;;
40489;SDS011;26196;52.302;10.572;2023-07-08T02:43:34;2.25;;;1.27;;
40489;SDS011;26196;52.302;10.572;2023-07-08T02:47:35;1.43;;;1.27;;
40489;SDS011;26196;52.302;10.572;2023-07-08T02:51:35;1.83;;;1.60;;
40489;SDS011;26196;52.302;10.572;2023-07-08T02:55:36;2.47;;;1.20;;
40489;SDS011;26196;52.302;10.572;2023-07-08T02:59:36;1.93;;;1.33;;
40489;SDS011;26196;52.302;10.572;2023-07-08T03:03:36;1.43;;;1.10;;
40489;SDS011;26196;52.302;10.572;2023-07-08T03:07:37;2.10;;;1.35;;
40489;SDS011;26196;52.302;10.572;2023-07-08T03:11:38;1.90;;;1.50;;
40489;SDS011;26196;52.302;10.572;2023-07-08T03:15:39;3.30;;;1.55;;
40489;SDS011;26196;52.302;10.572;2023-07-08T03:19:39;1.63;;;1.50;;
40489;SDS011;26196;52.302;10.572;2023-07-08T03:23:40;1.88;;;1.33;;
40489;SDS011;26196;52.302;10.572;2023-07-08T03:27:40;2.25;;;1.40;;
40489;SDS011;26196;52.302;10.572;2023-07-08T03:31:43;1.65;;;1.40;;
40489;SDS011;26196;52.302;10.572;2023-07-08T03:35:45;2.00;;;1.50;;
40489;SDS011;26196;52.302;10.572;2023-07-08T03:39:45;1.55;;;1.30;;
40489;SDS011;26196;52.302;10.572;2023-07-08T03:43:45;1.90;;;1.67;;
40489;SDS011;26196;52.302;10.572;2023-07-08T03:47:46;1.70;;;1.60;;
40489;SDS011;26196;52.302;10.572;2023-07-08T03:51:46;1.60;;;1.50;;
40489;SDS011;26196;52.302;10.572;2023-07-08T03:55:46;2.05;;;1.40;;
40489;SDS011;26196;52.302;10.572;2023-07-08T03:59:47;1.80;;;1.67;;
40489;SDS011;26196;52.302;10.572;2023-07-08T04:03:47;1.77;;;1.30;;
40489;SDS011;26196;52.302;10.572;2023-07-08T04:07:48;2.28;;;1.17;;
40489;SDS011;26196;52.302;10.572;2023-07-08T04:11:48;1.70;;;1.42;;
40489;SDS011;26196;52.302;10.572;2023-07-08T04:15:53;1.90;;;1.70;;
40489;SDS011;26196;52.302;10.572;2023-07-08T04:19:56;4.75;;;1.60;;
40489;SDS011;26196;52.302;10.572;2023-07-08T04:23:56;2.50;;;1.88;;
40489;SDS011;26196;52.302;10.572;2023-07-08T04:27:57;2.00;;;1.53;;
40489;SDS011;26196;52.302;10.572;2023-07-08T04:31:57;1.70;;;1.30;;
40489;SDS011;26196;52.302;10.572;2023-07-08T04:35:57;2.97;;;2.00;;
40489;SDS011;26196;52.302;10.572;2023-07-08T04:39:58;2.10;;;1.57;;
40489;SDS011;26196;52.302;10.572;2023-07-08T04:43:59;2.15;;;1.75;;
40489;SDS011;26196;52.302;10.572;2023-07-08T04:48:02;1.98;;;1.55;;
40489;SDS011;26196;52.302;10.572;2023-07-08T04:56:08;3.00;;;1.75;;
40489;SDS011;26196;52.302;10.572;2023-07-08T05:00:11;2.30;;;1.57;;
40489;SDS011;26196;52.302;10.572;2023-07-08T05:04:17;2.58;;;1.80;;
40489;SDS011;26196;52.302;10.572;2023-07-08T05:08:18;2.63;;;1.88;;
40489;SDS011;26196;52.302;10.572;2023-07-08T05:12:19;1.73;;;1.63;;
40489;SDS011;26196;52.302;10.572;2023-07-08T05:16:19;2.83;;;1.87;;
40489;SDS011;26196;52.302;10.572;2023-07-08T05:20:19;2.05;;;1.73;;
40489;SDS011;26196;52.302;10.572;2023-07-08T05:24:20;4.03;;;2.00;;
40489;SDS011;26196;52.302;10.572;2023-07-08T05:28:20;2.33;;;1.92;;
40489;SDS011;26196;52.302;10.572;2023-07-08T05:32:24;1.77;;;1.60;;
40489;SDS011;26196;52.302;10.572;2023-07-08T05:36:26;1.95;;;1.70;;
40489;SDS011;26196;52.302;10.572;2023-07-08T05:40:26;1.63;;;1.52;;
40489;SDS011;26196;52.302;10.572;2023-07-08T05:44:27;3.37;;;1.90;;
40489;SDS011;26196;52.302;10.572;2023-07-08T05:48:27;1.80;;;1.67;;
40489;SDS011;26196;52.302;10.572;2023-07-08T05:52:28;2.03;;;1.63;;
40489;SDS011;26196;52.302;10.572;2023-07-08T05:56:28;3.25;;;1.67;;
40489;SDS011;26196;52.302;10.572;2023-07-08T06:00:30;2.33;;;2.00;;
40489;SDS011;26196;52.302;10.572;2023-07-08T06:04:30;3.00;;;1.80;;
40489;SDS011;26196;52.302;10.572;2023-07-08T06:08:31;2.35;;;1.60;;
40489;SDS011;26196;52.302;10.572;2023-07-08T06:12:31;2.33;;;1.95;;
40489;SDS011;26196;52.302;10.572;2023-07-08T06:16:32;1.87;;;1.77;;
40489;SDS011;26196;52.302;10.572;2023-07-08T06:20:34;1.63;;;1.52;;
40489;SDS011;26196;52.302;10.572;2023-07-08T06:24:35;2.10;;;1.80;;
40489;SDS011;26196;52.302;10.572;2023-07-08T06:28:35;1.50;;;1.40;;
40489;SDS011;26196;52.302;10.572;2023-07-08T06:32:35;2.10;;;1.60;;
40489;SDS011;26196;52.302;10.572;2023-07-08T06:36:36;2.75;;;1.58;;
40489;SDS011;26196;52.302;10.572;2023-07-08T06:40:36;2.38;;;1.60;;
40489;SDS011;26196;52.302;10.572;2023-07-08T06:44:37;2.22;;;1.70;;
40489;SDS011;26196;52.302;10.572;2023-07-08T06:48:37;2.97;;;1.80;;
40489;SDS011;26196;52.302;10.572;2023-07-08T06:52:38;1.58;;;1.48;;
40489;SDS011;26196;52.302;10.572;2023-07-08T06:56:38;2.60;;;1.63;;
40489;SDS011;26196;52.302;10.572;2023-07-08T07:00:43;2.78;;;2.00;;
40489;SDS011;26196;52.302;10.572;2023-07-08T07:04:44;2.20;;;2.00;;
40489;SDS011;26196;52.302;10.572;2023-07-08T07:08:44;1.80;;;1.70;;
40489;SDS011;26196;52.302;10.572;2023-07-08T07:12:44;3.47;;;1.63;;
40489;SDS011;26196;52.302;10.572;2023-07-08T07:16:45;3.08;;;1.67;;
40489;SDS011;26196;52.302;10.572;2023-07-08T07:20:49;1.40;;;1.23;;
40489;SDS011;26196;52.302;10.572;2023-07-08T07:24:50;2.08;;;1.77;;
40489;SDS011;26196;52.302;10.572;2023-07-08T07:28:50;1.60;;;1.40;;
40489;SDS011;26196;52.302;10.572;2023-07-08T07:32:51;2.13;;;1.80;;
40489;SDS011;26196;52.302;10.572;2023-07-08T07:36:51;2.30;;;1.87;;
40489;SDS011;26196;52.302;10.572;2023-07-08T07:40:52;1.60;;;1.47;;
40489;SDS011;26196;52.302;10.572;2023-07-08T07:44:53;1.40;;;1.30;;
40489;SDS011;26196;52.302;10.572;2023-07-08T07:48:53;2.50;;;1.40;;
40489;SDS011;26196;52.302;10.572;2023-07-08T07:52:54;1.42;;;1.30;;
40489;SDS011;26196;52.302;10.572;2023-07-08T07:56:54;1.55;;;1.40;;
40489;SDS011;26196;52.302;10.572;2023-07-08T08:00:55;1.65;;;1.52;;
40489;SDS011;26196;52.302;10.572;2023-07-08T08:04:55;1.40;;;1.23;;
40489;SDS011;26196;52.302;10.572;2023-07-08T08:08:56;1.58;;;1.40;;
40489;SDS011;26196;52.302;10.572;2023-07-08T08:12:57;1.88;;;1.50;;
40489;SDS011;26196;52.302;10.572;2023-07-08T08:16:57;1.60;;;1.50;;
40489;SDS011;26196;52.302;10.572;2023-07-08T08:20:58;1.60;;;1.47;;
40489;SDS011;26196;52.302;10.572;2023-07-08T08:24:58;3.03;;;1.40;;
40489;SDS011;26196;52.302;10.572;2023-07-08T08:28:58;1.40;;;1.23;;
40489;SDS011;26196;52.302;10.572;2023-07-08T08:32:59;1.92;;;1.70;;
40489;SDS011;26196;52.302;10.572;2023-07-08T08:36:59;1.60;;;1.40;;
40489;SDS011;26196;52.302;10.572;2023-07-08T08:41:03;2.30;;;1.30;;
40489;SDS011;26196;52.302;10.572;2023-07-08T08:45:14;3.45;;;1.65;;
40489;SDS011;26196;52.302;10.572;2023-07-08T08:53:21;1.73;;;1.33;;
40489;SDS011;26196;52.302;10.572;2023-07-08T08:57:37;2.95;;;1.45;;
40489;SDS011;26196;52.302;10.572;2023-07-08T09:01:45;2.08;;;1.42;;
40489;SDS011;26196;52.302;10.572;2023-07-08T09:05:46;1.90;;;1.50;;
40489;SDS011;26196;52.302;10.572;2023-07-08T09:09:51;2.45;;;1.48;;
40489;SDS011;26196;52.302;10.572;2023-07-08T09:13:59;2.05;;;1.40;;
40489;SDS011;26196;52.302;10.572;2023-07-08T09:18:03;1.67;;;1.30;;
40489;SDS011;26196;52.302;10.572;2023-07-08T09:22:17;2.53;;;1.52;;
40489;SDS011;26196;52.302;10.572;2023-07-08T09:30:23;2.00;;;1.58;;
40489;SDS011;26196;52.302;10.572;2023-07-08T09:34:35;1.60;;;1.50;;
40489;SDS011;26196;52.302;10.572;2023-07-08T09:38:38;1.35;;;1.25;;
40489;SDS011;26196;52.302;10.572;2023-07-08T09:42:38;3.30;;;1.53;;
40489;SDS011;26196;52.302;10.572;2023-07-08T09:46:39;1.95;;;1.42;;
40489;SDS011;26196;52.302;10.572;2023-07-08T09:50:42;3.90;;;1.75;;
40489;SDS011;26196;52.302;10.572;2023-07-08T09:54:44;2.17;;;1.35;;
40489;SDS011;26196;52.302;10.572;2023-07-08T09:58:45;1.55;;;1.20;;
40489;SDS011;26196;52.302;10.572;2023-07-08T10:02:49;2.20;;;1.20;;
40489;SDS011;26196;52.302;10.572;2023-07-08T10:06:54;3.25;;;1.88;;
40489;SDS011;26196;52.302;10.572;2023-07-08T10:10:59;2.72;;;1.48;;
40489;SDS011;26196;52.302;10.572;2023-07-08T10:15:11;1.17;;;1.00;;
40489;SDS011;26196;52.302;10.572;2023-07-08T10:19:17;1.40;;;1.10;;
40489;SDS011;26196;52.302;10.572;2023-07-08T10:40:48;1.08;;;0.95;;
40489;SDS011;26196;52.302;10.572;2023-07-08T10:53:46;2.72;;;1.27;;
40489;SDS011;26196;52.302;10.572;2023-07-08T11:07:04;2.15;;;1.90;;
40489;SDS011;26196;52.302;10.572;2023-07-08T11:15:40;2.22;;;1.67;;
40489;SDS011;26196;52.302;10.572;2023-07-08T11:20:10;1.58;;;1.48;;
40489;SDS011;26196;52.302;10.572;2023-07-08T11:24:27;1.92;;;1.13;;
40489;SDS011;26196;52.302;10.572;2023-07-08T11:28:32;2.10;;;1.42;;
40489;SDS011;26196;52.302;10.572;2023-07-08T11:32:33;2.00;;;1.50;;
40489;SDS011;26196;52.302;10.572;2023-07-08T11:36:35;1.77;;;1.52;;
40489;SDS011;26196;52.302;10.572;2023-07-08T11:40:39;2.00;;;1.50;;
40489;SDS011;26196;52.302;10.572;2023-07-08T11:44:54;2.75;;;2.05;;
40489;SDS011;26196;52.302;10.572;2023-07-08T11:49:00;2.33;;;1.83;;
40489;SDS011;26196;52.302;10.572;2023-07-08T11:53:08;3.85;;;1.80;;
40489;SDS011;26196;52.302;10.572;2023-07-08T11:57:18;2.42;;;1.88;;
40489;SDS011;26196;52.302;10.572;2023-07-08T12:05:50;2.17;;;1.88;;
40489;SDS011;26196;52.302;10.572;2023-07-08T12:14:17;3.42;;;1.60;;
40489;SDS011;26196;52.302;10.572;2023-07-08T12:22:18;2.25;;;1.50;;
40489;SDS011;26196;52.302;10.572;2023-07-08T12:26:21;2.05;;;1.33;;
40489;SDS011;26196;52.302;10.572;2023-07-08T12:30:25;2.55;;;1.80;;
40489;SDS011;26196;52.302;10.572;2023-07-08T12:34:28;1.55;;;1.40;;
40489;SDS011;26196;52.302;10.572;2023-07-08T12:42:30;1.60;;;1.23;;
40489;SDS011;26196;52.302;10.572;2023-07-08T12:46:30;2.40;;;1.73;;
40489;SDS011;26196;52.302;10.572;2023-07-08T12:50:31;2.40;;;1.42;;
40489;SDS011;26196;52.302;10.572;2023-07-08T12:54:31;1.60;;;1.23;;
40489;SDS011;26196;52.302;10.572;2023-07-08T12:58:34;2.05;;;1.65;;
40489;SDS011;26196;52.302;10.572;2023-07-08T13:02:39;2.58;;;1.90;;
40489;SDS011;26196;52.302;10.572;2023-07-08T13:06:39;2.13;;;1.67;;
40489;SDS011;26196;52.302;10.572;2023-07-08T13:10:43;2.15;;;1.80;;
40489;SDS011;26196;52.302;10.572;2023-07-08T13:14:44;2.35;;;2.08;;
40489;SDS011;26196;52.302;10.572;2023-07-08T13:18:45;2.40;;;1.75;;
40489;SDS011;26196;52.302;10.572;2023-07-08T13:22:47;2.92;;;1.80;;
40489;SDS011;26196;52.302;10.572;2023-07-08T13:26:52;2.38;;;2.00;;
40489;SDS011;26196;52.302;10.572;2023-07-08T13:30:59;2.80;;;2.17;;
40489;SDS011;26196;52.302;10.572;2023-07-08T13:35:01;2.35;;;2.00;;
40489;SDS011;26196;52.302;10.572;2023-07-08T13:39:08;4.10;;;2.17;;
40489;SDS011;26196;52.302;10.572;2023-07-08T13:43:15;2.67;;;1.98;;
40489;SDS011;26196;52.302;10.572;2023-07-08T13:47:28;2.05;;;1.85;;
40489;SDS011;26196;52.302;10.572;2023-07-08T13:51:30;3.42;;;2.17;;
40489;SDS011;26196;52.302;10.572;2023-07-08T13:55:32;3.05;;;2.45;;
40489;SDS011;26196;52.302;10.572;2023-07-08T13:59:32;2.85;;;2.15;;
40489;SDS011;26196;52.302;10.572;2023-07-08T14:03:33;2.30;;;2.00;;
40489;SDS011;26196;52.302;10.572;2023-07-08T14:07:34;2.42;;;2.22;;
40489;SDS011;26196;52.302;10.572;2023-07-08T14:11:34;2.55;;;2.03;;
40489;SDS011;26196;52.302;10.572;2023-07-08T14:15:35;2.13;;;1.75;;
40489;SDS011;26196;52.302;10.572;2023-07-08T14:19:35;2.53;;;1.75;;
40489;SDS011;26196;52.302;10.572;2023-07-08T14:23:36;2.22;;;1.67;;
40489;SDS011;26196;52.302;10.572;2023-07-08T14:27:37;2.55;;;1.90;;
40489;SDS011;26196;52.302;10.572;2023-07-08T14:31:37;2.03;;;1.65;;
40489;SDS011;26196;52.302;10.572;2023-07-08T14:35:39;2.45;;;1.98;;
40489;SDS011;26196;52.302;10.572;2023-07-08T14:39:40;2.90;;;1.95;;
40489;SDS011;26196;52.302;10.572;2023-07-08T14:43:40;2.45;;;2.00;;
40489;SDS011;26196;52.302;10.572;2023-07-08T14:47:41;2.00;;;1.65;;
40489;SDS011;26196;52.302;10.572;2023-07-08T14:51:41;2.40;;;1.47;;
40489;SDS011;26196;52.302;10.572;2023-07-08T14:55:42;2.20;;;1.57;;
40489;SDS011;26196;52.302;10.572;2023-07-08T14:59:43;2.17;;;1.98;;
40489;SDS011;26196;52.302;10.572;2023-07-08T15:03:44;3.07;;;2.10;;
40489;SDS011;26196;52.302;10.572;2023-07-08T15:07:47;3.35;;;2.10;;
40489;SDS011;26196;52.302;10.572;2023-07-08T15:11:51;2.92;;;2.47;;
40489;SDS011;26196;52.302;10.572;2023-07-08T15:15:52;2.60;;;2.00;;
40489;SDS011;26196;52.302;10.572;2023-07-08T15:19:52;2.70;;;2.03;;
40489;SDS011;26196;52.302;10.572;2023-07-08T15:23:53;3.87;;;2.63;;
40489;SDS011;26196;52.302;10.572;2023-07-08T15:27:53;2.43;;;1.70;;
40489;SDS011;26196;52.302;10.572;2023-07-08T15:31:55;2.30;;;1.92;;
40489;SDS011;26196;52.302;10.572;2023-07-08T15:35:56;2.63;;;2.20;;
40489;SDS011;26196;52.302;10.572;2023-07-08T15:39:56;2.30;;;1.88;;
40489;SDS011;26196;52.302;10.572;2023-07-08T15:43:56;3.17;;;1.92;;
40489;SDS011;26196;52.302;10.572;2023-07-08T15:47:57;4.25;;;2.00;;
40489;SDS011;26196;52.302;10.572;2023-07-08T15:51:57;3.07;;;2.13;;
40489;SDS011;26196;52.302;10.572;2023-07-08T15:55:57;3.17;;;2.40;;
40489;SDS011;26196;52.302;10.572;2023-07-08T15:59:58;2.95;;;2.35;;
40489;SDS011;26196;52.302;10.572;2023-07-08T16:03:58;2.70;;;2.27;;
40489;SDS011;26196;52.302;10.572;2023-07-08T16:07:59;3.23;;;2.50;;
40489;SDS011;26196;52.302;10.572;2023-07-08T16:11:59;3.45;;;2.78;;
40489;SDS011;26196;52.302;10.572;2023-07-08T16:15:59;3.37;;;2.43;;
40489;SDS011;26196;52.302;10.572;2023-07-08T16:20:00;3.33;;;2.80;;
40489;SDS011;26196;52.302;10.572;2023-07-08T16:24:01;2.47;;;2.07;;
40489;SDS011;26196;52.302;10.572;2023-07-08T16:28:01;2.33;;;2.10;;
40489;SDS011;26196;52.302;10.572;2023-07-08T16:32:04;3.58;;;2.58;;
40489;SDS011;26196;52.302;10.572;2023-07-08T16:40:14;2.85;;;2.17;;
40489;SDS011;26196;52.302;10.572;2023-07-08T16:44:17;3.78;;;2.58;;
40489;SDS011;26196;52.302;10.572;2023-07-08T16:48:19;2.40;;;2.08;;
40489;SDS011;26196;52.302;10.572;2023-07-08T16:52:20;2.95;;;2.42;;
40489;SDS011;26196;52.302;10.572;2023-07-08T16:56:21;2.73;;;2.50;;
40489;SDS011;26196;52.302;10.572;2023-07-08T17:00:21;3.47;;;2.72;;
40489;SDS011;26196;52.302;10.572;2023-07-08T17:04:22;3.75;;;2.70;;
40489;SDS011;26196;52.302;10.572;2023-07-08T17:08:22;3.10;;;2.42;;
40489;SDS011;26196;52.302;10.572;2023-07-08T17:12:23;3.10;;;2.10;;
40489;SDS011;26196;52.302;10.572;2023-07-08T17:16:30;3.30;;;2.60;;
40489;SDS011;26196;52.302;10.572;2023-07-08T17:20:34;3.17;;;2.53;;
40489;SDS011;26196;52.302;10.572;2023-07-08T17:24:36;2.13;;;1.77;;
40489;SDS011;26196;52.302;10.572;2023-07-08T17:28:37;2.80;;;2.07;;
40489;SDS011;26196;52.302;10.572;2023-07-08T17:32:37;4.00;;;2.53;;
40489;SDS011;26196;52.302;10.572;2023-07-08T17:36:38;3.53;;;2.58;;
40489;SDS011;26196;52.302;10.572;2023-07-08T17:40:39;4.00;;;2.30;;
40489;SDS011;26196;52.302;10.572;2023-07-08T17:44:39;2.97;;;2.03;;
40489;SDS011;26196;52.302;10.572;2023-07-08T17:48:40;3.72;;;2.78;;
40489;SDS011;26196;52.302;10.572;2023-07-08T17:52:46;3.58;;;2.70;;
40489;SDS011;26196;52.302;10.572;2023-07-08T17:56:47;3.08;;;2.65;;
40489;SDS011;26196;52.302;10.572;2023-07-08T18:00:48;3.15;;;2.47;;
40489;SDS011;26196;52.302;10.572;2023-07-08T18:04:49;3.25;;;2.63;;
40489;SDS011;26196;52.302;10.572;2023-07-08T18:08:49;3.23;;;2.40;;
40489;SDS011;26196;52.302;10.572;2023-07-08T18:12:50;3.38;;;2.53;;
40489;SDS011;26196;52.302;10.572;2023-07-08T18:16:52;2.92;;;2.38;;
40489;SDS011;26196;52.302;10.572;2023-07-08T18:20:52;3.58;;;2.72;;
40489;SDS011;26196;52.302;10.572;2023-07-08T18:24:53;3.17;;;2.70;;
40489;SDS011;26196;52.302;10.572;2023-07-08T18:28:54;3.57;;;2.47;;
40489;SDS011;26196;52.302;10.572;2023-07-08T18:32:54;3.15;;;2.40;;
40489;SDS011;26196;52.302;10.572;2023-07-08T18:36:55;2.80;;;2.20;;
40489;SDS011;26196;52.302;10.572;2023-07-08T18:40:56;2.63;;;1.97;;
40489;SDS011;26196;52.302;10.572;2023-07-08T18:44:57;2.22;;;2.03;;
40489;SDS011;26196;52.302;10.572;2023-07-08T18:48:58;2.40;;;2.05;;
40489;SDS011;26196;52.302;10.572;2023-07-08T18:53:02;2.80;;;2.10;;
40489;SDS011;26196;52.302;10.572;2023-07-08T18:57:03;3.17;;;2.25;;
40489;SDS011;26196;52.302;10.572;2023-07-08T19:01:07;2.75;;;1.88;;
40489;SDS011;26196;52.302;10.572;2023-07-08T19:05:13;3.08;;;2.25;;
40489;SDS011;26196;52.302;10.572;2023-07-08T19:09:14;2.72;;;2.03;;
40489;SDS011;26196;52.302;10.572;2023-07-08T19:13:19;2.72;;;2.40;;
40489;SDS011;26196;52.302;10.572;2023-07-08T19:21:21;2.85;;;2.20;;
40489;SDS011;26196;52.302;10.572;2023-07-08T19:25:25;2.78;;;2.20;;
40489;SDS011;26196;52.302;10.572;2023-07-08T19:29:25;3.60;;;2.35;;
40489;SDS011;26196;52.302;10.572;2023-07-08T19:33:26;2.90;;;2.27;;
40489;SDS011;26196;52.302;10.572;2023-07-08T19:37:26;2.40;;;2.20;;
40489;SDS011;26196;52.302;10.572;2023-07-08T19:41:28;2.90;;;2.37;;
40489;SDS011;26196;52.302;10.572;2023-07-08T19:45:30;3.53;;;2.00;;
40489;SDS011;26196;52.302;10.572;2023-07-08T19:49:30;2.60;;;2.30;;
40489;SDS011;26196;52.302;10.572;2023-07-08T19:53:31;3.40;;;2.50;;
40489;SDS011;26196;52.302;10.572;2023-07-08T19:57:50;3.07;;;2.73;;
40489;SDS011;26196;52.302;10.572;2023-07-08T20:01:55;2.65;;;2.35;;
40489;SDS011;26196;52.302;10.572;2023-07-08T20:05:57;3.50;;;2.75;;
40489;SDS011;26196;52.302;10.572;2023-07-08T20:09:57;4.07;;;2.90;;
40489;SDS011;26196;52.302;10.572;2023-07-08T20:13:57;3.73;;;2.70;;
40489;SDS011;26196;52.302;10.572;2023-07-08T20:17:58;2.97;;;2.40;;
40489;SDS011;26196;52.302;10.572;2023-07-08T20:21:59;2.75;;;2.47;;
40489;SDS011;26196;52.302;10.572;2023-07-08T20:25:59;3.10;;;2.43;;
40489;SDS011;26196;52.302;10.572;2023-07-08T20:30:00;2.58;;;2.38;;
40489;SDS011;26196;52.302;10.572;2023-07-08T20:34:00;3.00;;;2.70;;
40489;SDS011;26196;52.302;10.572;2023-07-08T20:38:00;3.30;;;2.87;;
40489;SDS011;26196;52.302;10.572;2023-07-08T20:42:01;5.00;;;2.60;;
40489;SDS011;26196;52.302;10.572;2023-07-08T20:46:14;3.70;;;3.13;;
40489;SDS011;26196;52.302;10.572;2023-07-08T20:50:23;4.85;;;3.67;;
40489;SDS011;26196;52.302;10.572;2023-07-08T20:54:24;4.55;;;3.35;;
40489;SDS011;26196;52.302;10.572;2023-07-08T20:58:25;3.57;;;3.23;;
40489;SDS011;26196;52.302;10.572;2023-07-08T21:02:26;4.80;;;4.30;;
40489;SDS011;26196;52.302;10.572;2023-07-08T21:06:27;5.78;;;3.92;;
40489;SDS011;26196;52.302;10.572;2023-07-08T21:10:31;4.35;;;3.42;;
40489;SDS011;26196;52.302;10.572;2023-07-08T21:14:32;3.73;;;3.20;;
40489;SDS011;26196;52.302;10.572;2023-07-08T21:18:33;4.18;;;3.55;;
40489;SDS011;26196;52.302;10.572;2023-07-08T21:22:36;5.47;;;3.95;;
40489;SDS011;26196;52.302;10.572;2023-07-08T21:26:37;3.75;;;3.38;;
40489;SDS011;26196;52.302;10.572;2023-07-08T21:30:37;4.00;;;3.38;;
40489;SDS011;26196;52.302;10.572;2023-07-08T21:34:39;6.28;;;3.80;;
40489;SDS011;26196;52.302;10.572;2023-07-08T21:38:40;3.43;;;3.07;;
40489;SDS011;26196;52.302;10.572;2023-07-08T21:42:40;5.07;;;3.00;;
40489;SDS011;26196;52.302;10.572;2023-07-08T21:46:40;4.70;;;2.80;;
40489;SDS011;26196;52.302;10.572;2023-07-08T21:50:45;4.90;;;3.17;;
40489;SDS011;26196;52.302;10.572;2023-07-08T21:54:47;3.70;;;3.03;;
40489;SDS011;26196;52.302;10.572;2023-07-08T21:58:47;3.60;;;3.30;;
40489;SDS011;26196;52.302;10.572;2023-07-08T22:02:48;4.28;;;3.40;;
40489;SDS011;26196;52.302;10.572;2023-07-08T22:06:50;3.10;;;2.80;;
40489;SDS011;26196;52.302;10.572;2023-07-08T22:10:56;3.72;;;2.97;;
40489;SDS011;26196;52.302;10.572;2023-07-08T22:15:01;3.45;;;2.92;;
40489;SDS011;26196;52.302;10.572;2023-07-08T22:19:03;4.63;;;3.42;;
40489;SDS011;26196;52.302;10.572;2023-07-08T22:23:06;4.07;;;3.67;;
40489;SDS011;26196;52.302;10.572;2023-07-08T22:31:14;4.25;;;3.25;;
40489;SDS011;26196;52.302;10.572;2023-07-08T22:35:22;3.38;;;3.00;;
40489;SDS011;26196;52.302;10.572;2023-07-08T22:39:30;3.83;;;3.08;;
40489;SDS011;26196;52.302;10.572;2023-07-08T22:43:30;3.63;;;2.80;;
40489;SDS011;26196;52.302;10.572;2023-07-08T22:47:31;3.45;;;3.15;;
40489;SDS011;26196;52.302;10.572;2023-07-08T22:51:33;3.80;;;3.13;;
40489;SDS011;26196;52.302;10.572;2023-07-08T22:55:36;4.68;;;3.78;;
40489;SDS011;26196;52.302;10.572;2023-07-08T22:59:36;3.63;;;3.10;;
40489;SDS011;26196;52.302;10.572;2023-07-08T23:03:37;3.75;;;3.25;;
40489;SDS011;26196;52.302;10.572;2023-07-08T23:07:37;3.57;;;3.10;;
40489;SDS011;26196;52.302;10.572;2023-07-08T23:11:37;3.80;;;3.30;;
40489;SDS011;26196;52.302;10.572;2023-07-08T23:15:38;3.60;;;2.90;;
40489;SDS011;26196;52.302;10.572;2023-07-08T23:19:38;4.73;;;3.07;;
40489;SDS011;26196;52.302;10.572;2023-07-08T23:23:38;5.33;;;3.40;;
40489;SDS011;26196;52.302;10.572;2023-07-08T23:27:39;4.75;;;3.05;;
40489;SDS011;26196;52.302;10.572;2023-07-08T23:31:40;4.13;;;2.50;;
40489;SDS011;26196;52.302;10.572;2023-07-08T23:35:41;3.77;;;3.10;;
40489;SDS011;26196;52.302;10.572;2023-07-08T23:39:42;3.92;;;2.92;;
40489;SDS011;26196;52.302;10.572;2023-07-08T23:43:43;3.72;;;2.60;;
40489;SDS011;26196;52.302;10.572;2023-07-08T23:47:44;3.50;;;2.58;;
40489;SDS011;26196;52.302;10.572;2023-07-08T23:51:45;4.13;;;3.00;;
40489;SDS011;26196;52.302;10.572;2023-07-08T23:55:46;3.72;;;2.78;;
40489;SDS011;26196;52.302;10.572;2023-07-08T23:59:50;2.95;;;2.50;;
